Port Lavaca, TX

3:37 AM CST on February 22, 2017 (GMT -0600)
Port Lavaca

Weather History for KPKV - February, 2013

Change the Weather History Date:

Saturday, February 23, 2013

  Actual Average (KVCT) Record (KVCT)
Temperature  
Mean Temperature 55 °F -  
Max Temperature 64 °F 69 °F 89 °F (1920)
Min Temperature 46 °F 46 °F 28 °F (2009)
Degree Days  
Heating Degree Days 10    
Growing Degree Days 5 (Base 50)    
Moisture  
Dew Point 43 °F    
Average Humidity 64    
Maximum Humidity 93    
Minimum Humidity 49    
Precipitation  
Precipitation 0.00 in - - ()
Sea Level Pressure  
Sea Level Pressure 29.95 in    
Wind  
Wind Speed 10 mph (North)    
Max Wind Speed 17 mph    
Max Gust Speed 22 mph    
Visibility 10 miles    
Events      
Averages and records for this station are not official NWS values.
T = Trace of Precipitation, MM = Missing Value Source: NWS Daily Summary

Daily Weather History Graph

Daily Weather History Graph

Search for Another Location

Airport or City:

Trip Planner

Search our weather history database for the weather conditions in past years. The results will help you decide how hot, cold, wet, or windy it might be!

Date:

Astronomy

Feb. 23, 2013 Rise Set
Actual Time 6:57 AM CST 6:22 PM CST
Civil Twilight 6:33 AM CST 6:46 PM CST
Nautical Twilight 6:06 AM CST 7:14 PM CST
Astronomical Twilight 5:38 AM CST 7:41 PM CST
Moon 4:39 PM CST (2/23) 5:14 AM CST (2/23)
Length of Visible Light 12h 13m
Length of Day
11h 25m
Waxing Gibbous, 95% of the Moon is Illuminated
Feb 23
Waxing Gibbous
Feb 25
Full
Mar 4
Last Quarter
Mar 11
New
Mar 19
First Quarter

Hourly Weather History & Observations

Time (CST) Temp. Windchill Dew Point Humidity Pressure Visibility Wind Dir Wind Speed Gust Speed Precip Events Conditions
12:15 AM 55.4 °F - 44.6 °F 67% 29.94 in 10.0 mi North 15.0 mph 20.7 mph N/A   Overcast
12:35 AM 55.4 °F - 44.6 °F 67% 29.94 in 10.0 mi North 13.8 mph 21.9 mph N/A   Overcast
12:55 AM 53.6 °F - 42.8 °F 67% 29.95 in 10.0 mi North 13.8 mph - N/A   Overcast
1:15 AM 53.6 °F - 42.8 °F 67% 29.95 in 10.0 mi North 12.7 mph - N/A   Overcast
1:35 AM 53.6 °F - 42.8 °F 67% 29.95 in 10.0 mi North 10.4 mph - N/A   Overcast
1:55 AM 53.6 °F - 42.8 °F 67% 29.96 in 10.0 mi North 13.8 mph - N/A   Overcast
2:15 AM 53.6 °F - 41.0 °F 62% 29.97 in 10.0 mi North 12.7 mph - N/A   Overcast
2:35 AM 53.6 °F - 41.0 °F 62% 29.96 in 10.0 mi North 12.7 mph 19.6 mph N/A   Overcast
2:55 AM 53.6 °F - 41.0 °F 62% 29.95 in 10.0 mi North 13.8 mph - N/A   Overcast
3:15 AM 51.8 °F - 41.0 °F 67% 29.95 in 10.0 mi North 12.7 mph - N/A   Overcast
3:35 AM 51.8 °F - 39.2 °F 62% 29.95 in 10.0 mi North 12.7 mph - N/A   Scattered Clouds
3:55 AM 51.8 °F - 39.2 °F 62% 29.95 in 10.0 mi North 10.4 mph - N/A   Clear
4:15 AM 51.8 °F - 39.2 °F 62% 29.96 in 10.0 mi North 12.7 mph - N/A   Scattered Clouds
4:35 AM 51.8 °F - 39.2 °F 62% 29.96 in 10.0 mi North 10.4 mph - N/A   Mostly Cloudy
4:55 AM 50.0 °F - 37.4 °F 62% 29.94 in 10.0 mi North 16.1 mph 19.6 mph N/A   Scattered Clouds
5:15 AM 50.0 °F - 37.4 °F 62% 29.95 in 10.0 mi North 11.5 mph - N/A   Clear
5:35 AM 50.0 °F - 37.4 °F 62% 29.95 in 10.0 mi North 12.7 mph 17.3 mph N/A   Clear
6:15 AM 50.0 °F - 37.4 °F 62% 29.97 in 10.0 mi North 11.5 mph - N/A   Scattered Clouds
6:35 AM 48.2 °F - 37.4 °F 66% 29.95 in 10.0 mi North 17.3 mph 20.7 mph N/A   Scattered Clouds
6:55 AM 48.2 °F - 37.4 °F 66% 29.96 in 10.0 mi NNE 10.4 mph - N/A   Clear
7:15 AM 48.2 °F - 37.4 °F 66% 29.97 in 10.0 mi NNE 8.1 mph - N/A   Clear
7:35 AM 48.2 °F - 37.4 °F 66% 29.97 in 10.0 mi North 12.7 mph - N/A   Clear
7:55 AM 48.2 °F - 37.4 °F 66% 29.98 in 10.0 mi North 13.8 mph - N/A   Clear
8:15 AM 48.2 °F - 37.4 °F 66% 29.97 in 10.0 mi North 11.5 mph 17.3 mph N/A   Clear
8:35 AM 50.0 °F - 39.2 °F 66% 29.98 in 10.0 mi North 11.5 mph - N/A   Clear
8:55 AM 50.0 °F - 41.0 °F 71% 29.99 in 10.0 mi North 9.2 mph - N/A   Clear
9:15 AM 51.8 °F - 41.0 °F 67% 29.99 in 10.0 mi NNE 11.5 mph - N/A   Clear
9:35 AM 53.6 °F - 42.8 °F 67% 30.00 in 10.0 mi NNE 9.2 mph - N/A   Clear
9:55 AM 53.6 °F - 42.8 °F 67% 30.01 in 10.0 mi NE 9.2 mph - N/A   Clear
10:15 AM 55.4 °F - 42.8 °F 63% 30.02 in 10.0 mi North 8.1 mph - N/A   Clear
10:35 AM 57.2 °F - 42.8 °F 59% 30.02 in 10.0 mi North 8.1 mph - N/A   Clear
10:55 AM 57.2 °F - 42.8 °F 59% 30.02 in 10.0 mi North 8.1 mph - N/A   Clear
11:15 AM 59.0 °F - 42.8 °F 55% 30.03 in 10.0 mi NNW 8.1 mph - N/A   Clear
11:35 AM 59.0 °F - 42.8 °F 55% 30.01 in 10.0 mi WNW 4.6 mph - N/A   Clear
12:15 PM 60.8 °F - 44.6 °F 55% 30.00 in 10.0 mi WNW 5.8 mph - N/A   Scattered Clouds
12:35 PM 60.8 °F - 44.6 °F 55% 29.99 in 10.0 mi West 4.6 mph - N/A   Mostly Cloudy
12:55 PM 62.6 °F - 44.6 °F 52% 29.98 in 10.0 mi West 6.9 mph - N/A   Scattered Clouds
1:15 PM 62.6 °F - 44.6 °F 52% 29.97 in 10.0 mi WNW 5.8 mph - N/A   Clear
1:35 PM 62.6 °F - 44.6 °F 52% 29.96 in 10.0 mi WNW 8.1 mph - N/A   Clear
1:55 PM 62.6 °F - 46.4 °F 55% 29.95 in 10.0 mi NNW 8.1 mph - N/A   Clear
2:15 PM 64.4 °F - 44.6 °F 49% 29.94 in 10.0 mi NNW 6.9 mph - N/A   Clear
2:35 PM 62.6 °F - 44.6 °F 52% 29.93 in 10.0 mi NW 8.1 mph - N/A   Clear
2:55 PM 64.4 °F - 44.6 °F 49% 29.93 in 10.0 mi NW 6.9 mph - N/A   Clear
3:15 PM 64.4 °F - 44.6 °F 49% 29.91 in 10.0 mi NW 8.1 mph - N/A   Clear
3:35 PM 64.4 °F - 44.6 °F 49% 29.91 in 10.0 mi NNW 6.9 mph - N/A   Clear
3:55 PM 64.4 °F - 44.6 °F 49% 29.90 in 10.0 mi North 4.6 mph - N/A   Clear
4:15 PM 64.4 °F - 44.6 °F 49% 29.90 in 10.0 mi Calm Calm - N/A   Clear
4:35 PM 64.4 °F - 44.6 °F 49% 29.90 in 10.0 mi Calm Calm - N/A   Clear
5:15 PM 64.4 °F - 46.4 °F 52% 29.89 in 10.0 mi East 5.8 mph - N/A   Clear
5:35 PM 62.6 °F - 46.4 °F 55% 29.89 in 10.0 mi East 3.5 mph - N/A   Clear
5:55 PM 62.6 °F - 46.4 °F 55% 29.89 in 10.0 mi East 3.5 mph - N/A   Clear
6:15 PM 62.6 °F - 46.4 °F 55% 29.90 in 10.0 mi Calm Calm - N/A   Clear
6:35 PM 60.8 °F - 46.4 °F 59% 29.90 in 10.0 mi ESE 4.6 mph - N/A   Clear
6:55 PM 59.0 °F - 46.4 °F 63% 29.91 in 10.0 mi ESE 3.5 mph - N/A   Clear
7:15 PM 59.0 °F - 46.4 °F 63% 29.91 in 10.0 mi SE 4.6 mph - N/A   Clear
7:35 PM 55.4 °F - 44.6 °F 67% 29.91 in 10.0 mi ESE 3.5 mph - N/A   Clear
7:55 PM 55.4 °F - 46.4 °F 72% 29.92 in 10.0 mi Calm Calm - N/A   Clear
8:15 PM 57.2 °F - 46.4 °F 67% 29.92 in 10.0 mi East 3.5 mph - N/A   Clear
8:35 PM 55.4 °F - 46.4 °F 72% 29.93 in 10.0 mi Calm Calm - N/A   Clear
8:55 PM 53.6 °F - 48.2 °F 82% 29.93 in 10.0 mi Calm Calm - N/A   Clear
9:15 PM 53.6 °F - 48.2 °F 82% 29.94 in 10.0 mi South 3.5 mph - N/A   Clear
9:35 PM 53.6 °F - 48.2 °F 82% 29.95 in 10.0 mi Calm Calm - N/A   Clear
9:55 PM 53.6 °F - 46.4 °F 77% 29.95 in 10.0 mi Calm Calm - N/A   Clear
10:15 PM 51.8 °F - 46.4 °F 82% 29.95 in 10.0 mi Calm Calm - N/A   Clear
10:35 PM 51.8 °F - 44.6 °F 76% 29.95 in 10.0 mi Calm Calm - N/A   Clear
10:55 PM 46.4 °F - 42.8 °F 87% 29.94 in 10.0 mi Calm Calm - N/A   Clear
11:15 PM 46.4 °F 45.2 °F 44.6 °F 93% 29.93 in 10.0 mi NNE 3.5 mph - N/A   Clear
11:35 PM 48.2 °F - 44.6 °F 87% 29.93 in 10.0 mi NNE 3.5 mph - N/A   Clear
11:55 PM 48.2 °F - 44.6 °F 87% 29.92 in 10.0 mi NE 4.6 mph - N/A   Clear